Cesky Tesin, Czech Republic
Current Conditions -  °F | °C
As of 11:00 AM on Saturday 22 Nov 2014 (Local Time) from LKMT Reporting Station
Haze Haze  
Wind Chill: 37°   Ceiling: 2000
Heat Index: 37°   Visibility: 2.8mi
Dew Point: 36°   Wind: 3mph
Humidity: 93%   Direction: 40°NE
Pressure: 30.33"   Gusts: NA
Location:  49.74°N, 18.62°E
Report Text: LKMT 220900Z 04003KT 4500 BR OVC020 03/02 Q1027 NOSIG
Loading
Personal Weather Stations






























Interactive Weather Map New forecast layout! Learn more

10-Day Weather Forecast

Advertisements
Track Severe Weather on mobile